VLVT/VTE METAR and TAF weather

Enter ICAO airport designator
Station Type Date Time Source
VLVT METAR 2020/04/05 16:00 UTC NOAA

VLVT 051600Z 12002KT 4000 BR SCT040 28/24 Q1012 NOSIG


Station Type Date Time Source
VLVT Decoded METAR 2020/04/05 16:00 UTC NOAA

Vientiane, Laos (VLVT) 17-57N 102-34E 171M
Apr 05, 2020 - 12:00 PM EDT / 2020.04.05 1600 UTC
Wind: from the ESE (120 degrees) at 2 MPH (2 KT):0
Visibility: 2 mile(s):0
Sky conditions: partly cloudy
Weather: mist
Temperature: 82 F (28 C)
Dew Point: 75 F (24 C)
Relative Humidity: 78%
Pressure (altimeter): 29.88 in. Hg (1012 hPa)
ob: VLVT 051600Z 12002KT 4000 BR SCT040 28/24 Q1012 NOSIG
cycle: 16

Station Type Date Time Source
VLVT TAF 2020/04/05 12:39 UTC NOAA

TAF TAF VLVT 051100Z 0512/0612 12006KT 4000 TSRA SCT017 FEW027CB BKN050 SCT083

Example: see airport list